createdAt,value
2023-01-13T00:02:21.495Z,100176.53
2023-01-13T00:04:54.252Z,100160.53
2023-01-13T00:07:27.899Z,100177.78
2023-01-13T00:10:00.615Z,100185.41
2023-01-13T00:12:33.101Z,100174.75
2023-01-13T00:15:07.103Z,100175.22
2023-01-13T00:17:39.601Z,100173.94
2023-01-13T00:20:12.612Z,100166.84
2023-01-13T00:22:45.182Z,100166.56
2023-01-13T00:25:17.915Z,100169.81
2023-01-13T00:27:50.405Z,100170.59
2023-01-13T00:30:22.929Z,100163.19
2023-01-13T00:32:55.437Z,100156.34
2023-01-13T00:35:28.107Z,100142.91
2023-01-13T00:38:00.801Z,100142.13
2023-01-13T00:40:33.467Z,100143.38
2023-01-13T00:43:24.429Z,100133.50
2023-01-13T00:45:56.931Z,100136.28
2023-01-13T00:48:31.345Z,100130.41
2023-01-13T00:51:17.090Z,100129.63
2023-01-13T00:53:52.002Z,100125.31
2023-01-13T00:56:39.900Z,100120.22
2023-01-13T00:59:14.122Z,100120.22
2023-01-13T01:01:46.946Z,100121.50
2023-01-13T01:04:19.555Z,100121.22
2023-01-13T01:06:52.267Z,100126.25
2023-01-13T01:09:32.630Z,100130.84
2023-01-13T01:12:05.442Z,100126.25
2023-01-13T01:14:37.941Z,100128.00
2023-01-13T01:17:10.701Z,100137.41
2023-01-13T01:19:43.364Z,100130.31
2023-01-13T01:22:15.879Z,100138.59
2023-01-13T01:24:48.565Z,100149.56
2023-01-13T01:27:21.277Z,100143.97
2023-01-13T01:29:53.849Z,100136.84
2023-01-13T01:32:26.481Z,100136.84
2023-01-13T01:34:59.155Z,100154.06
2023-01-13T01:37:31.669Z,100154.59
2023-01-13T01:40:04.738Z,100151.50
2023-01-13T01:42:55.930Z,100151.50
2023-01-13T01:45:30.853Z,100168.25
2023-01-13T01:48:07.055Z,100161.13
2023-01-13T01:50:40.549Z,100164.41
2023-01-13T01:53:21.814Z,100159.59
2023-01-13T01:55:57.343Z,100162.88
2023-01-13T01:58:47.355Z,100152.47
2023-01-13T02:01:20.610Z,100155.22
2023-01-13T02:04:02.291Z,100164.13
2023-01-13T02:06:34.827Z,100155.97
2023-01-13T02:09:13.947Z,100153.47
2023-01-13T02:12:05.072Z,100144.06
2023-01-13T02:14:41.655Z,100150.09
2023-01-13T02:17:32.342Z,100153.47
2023-01-13T02:20:36.045Z,100142.03
2023-01-13T02:23:48.111Z,100145.28
2023-01-13T02:26:38.529Z,100134.38
2023-01-13T02:30:25.223Z,100146.34
2023-01-13T02:33:19.965Z,100140.41
2023-01-13T02:36:24.337Z,100142.72
2023-01-13T02:39:21.618Z,100143.69
2023-01-13T02:42:19.174Z,100147.75
2023-01-13T02:45:06.989Z,100151.78
2023-01-13T02:47:46.187Z,100149.69
2023-01-13T02:50:26.984Z,100128.38
2023-01-13T02:53:10.548Z,100134.22
2023-01-13T02:55:50.281Z,100128.38
2023-01-13T02:58:28.692Z,100129.88
2023-01-13T03:01:01.521Z,100132.41
2023-01-13T03:03:34.189Z,100126.81
2023-01-13T03:06:51.841Z,100127.66
2023-01-13T03:09:48.692Z,100120.28
2023-01-13T03:13:18.638Z,100119.28
2023-01-13T03:16:27.352Z,100115.47
2023-01-13T03:19:06.038Z,100117.69
2023-01-13T03:21:54.668Z,100115.88
2023-01-13T03:24:44.832Z,100115.38
2023-01-13T03:27:34.103Z,100119.72
2023-01-13T03:30:18.755Z,100115.09
2023-01-13T03:32:59.668Z,100115.25
2023-01-13T03:35:45.036Z,100116.66
2023-01-13T03:38:30.382Z,100116.09
2023-01-13T03:41:10.718Z,100116.09
2023-01-13T03:44:25.065Z,100126.22
2023-01-13T03:47:25.031Z,100124.19
2023-01-13T03:50:12.644Z,100109.47
2023-01-13T03:53:07.610Z,100114.25
2023-01-13T03:55:52.863Z,100126.69
2023-01-13T03:58:33.709Z,100117.56
2023-01-13T04:01:42.303Z,100117.06
2023-01-13T04:04:30.481Z,100112.75
2023-01-13T04:07:40.687Z,100114.53
2023-01-13T04:10:21.534Z,100111.91
2023-01-13T04:13:05.206Z,100103.53
2023-01-13T04:15:42.972Z,100113.44
2023-01-13T04:18:22.567Z,100112.88
2023-01-13T04:20:58.989Z,100115.94
2023-01-13T04:23:43.201Z,100110.38
2023-01-13T04:26:15.850Z,100091.34
2023-01-13T04:28:49.225Z,100110.09
2023-01-13T04:31:21.972Z,100119.22
2023-01-13T04:33:54.566Z,100123.28
2023-01-13T04:36:29.844Z,100128.06
2023-01-13T04:39:04.113Z,100120.97
2023-01-13T04:41:55.391Z,100128.22
2023-01-13T04:44:28.867Z,100124.03
2023-01-13T04:47:02.843Z,100119.69
2023-01-13T04:49:35.412Z,100124.44
2023-01-13T04:52:08.043Z,100133.34
2023-01-13T04:54:49.431Z,100130.28
2023-01-13T04:57:21.975Z,100130.56
2023-01-13T04:59:54.583Z,100130.28
2023-01-13T05:02:33.382Z,100123.66
2023-01-13T05:05:06.734Z,100118.84
2023-01-13T05:07:45.742Z,100106.38
2023-01-13T05:10:18.770Z,100114.25
2023-01-13T05:13:10.426Z,100111.47
2023-01-13T05:16:02.184Z,100118.84
2023-01-13T05:18:35.216Z,100115.31
2023-01-13T05:21:27.773Z,100120.59
2023-01-13T05:24:18.807Z,100108.69
2023-01-13T05:26:51.485Z,100108.88
2023-01-13T05:29:24.226Z,100107.44
2023-01-13T05:31:56.902Z,100105.63
2023-01-13T05:34:29.571Z,100105.63
2023-01-13T05:37:03.393Z,100109.66
2023-01-13T05:39:56.087Z,100112.47
2023-01-13T05:42:47.248Z,100117.25
2023-01-13T05:45:19.992Z,100118.50
2023-01-13T05:47:52.669Z,100116.19
2023-01-13T05:50:25.341Z,100128.91
2023-01-13T05:52:57.887Z,100119.00
2023-01-13T05:55:30.587Z,100126.59
2023-01-13T05:58:03.273Z,100130.13
2023-01-13T06:00:37.026Z,100128.34
2023-01-13T06:03:10.652Z,100128.34
2023-01-13T06:05:43.903Z,100125.25
2023-01-13T06:08:16.687Z,100142.75
2023-01-13T06:10:49.418Z,100141.41
2023-01-13T06:13:22.299Z,100153.13
2023-01-13T06:15:59.450Z,100150.34
2023-01-13T06:18:32.226Z,100167.06
2023-01-13T06:21:05.130Z,100163.28
2023-01-13T06:23:38.804Z,100171.19
2023-01-13T06:26:23.830Z,100174.06
2023-01-13T06:28:56.380Z,100180.41
2023-01-13T06:31:38.288Z,100195.38
2023-01-13T06:34:14.503Z,100201.53
2023-01-13T06:36:53.222Z,100197.28
2023-01-13T06:39:31.066Z,100198.63
2023-01-13T06:42:23.272Z,100199.19
2023-01-13T06:44:55.955Z,100192.91
2023-01-13T06:47:28.656Z,100185.88
2023-01-13T06:50:01.199Z,100191.06
2023-01-13T06:52:33.887Z,100193.91
2023-01-13T06:55:06.910Z,100194.47
2023-01-13T06:57:57.861Z,100196.16
2023-01-13T07:00:32.314Z,100182.19
2023-01-13T07:03:17.281Z,100194.72
2023-01-13T07:05:55.563Z,100194.81
2023-01-13T07:08:28.291Z,100198.16
2023-01-13T07:11:03.705Z,100182.94
2023-01-13T07:13:55.074Z,100188.31
2023-01-13T07:16:28.314Z,100203.97
2023-01-13T07:19:03.286Z,100207.03
2023-01-13T07:21:36.187Z,100188.25
2023-01-13T07:24:11.314Z,100203.81
2023-01-13T07:26:43.822Z,100206.88
2023-01-13T07:29:16.359Z,100210.72
2023-01-13T07:31:50.196Z,100204.91
2023-01-13T07:34:22.974Z,100208.75
2023-01-13T07:36:55.711Z,100204.13
2023-01-13T07:39:28.420Z,100211.03
2023-01-13T07:42:20.155Z,100219.69
2023-01-13T07:44:52.741Z,100225.56
2023-01-13T07:47:25.451Z,100222.75
2023-01-13T07:49:58.100Z,100213.91
2023-01-13T07:52:30.639Z,100225.81
2023-01-13T07:55:03.778Z,100220.25
2023-01-13T07:57:36.450Z,100231.41
2023-01-13T08:00:12.761Z,100231.41
2023-01-13T08:02:45.563Z,100245.66
2023-01-13T08:05:18.387Z,100247.22
2023-01-13T08:07:51.027Z,100232.69
2023-01-13T08:10:26.728Z,100252.00
2023-01-13T08:13:17.686Z,100245.66
2023-01-13T08:15:54.726Z,100234.75
2023-01-13T08:18:27.629Z,100237.78
2023-01-13T08:21:08.241Z,100237.56
2023-01-13T08:23:43.339Z,100236.31
2023-01-13T08:26:18.333Z,100236.78
2023-01-13T08:28:51.032Z,100239.09
2023-01-13T08:31:23.791Z,100233.50
2023-01-13T08:33:56.721Z,100240.81
2023-01-13T08:36:29.448Z,100237.34
2023-01-13T08:39:04.866Z,100242.94
2023-01-13T08:41:55.741Z,100246.50
2023-01-13T08:44:31.740Z,100251.31
2023-01-13T08:47:04.735Z,100256.41
2023-01-13T08:49:37.306Z,100253.34
2023-01-13T08:52:12.864Z,100261.50
2023-01-13T08:54:45.573Z,100253.88
2023-01-13T08:57:21.552Z,100253.88
2023-01-13T08:59:54.376Z,100265.03
2023-01-13T09:02:27.744Z,100272.94
2023-01-13T09:05:03.605Z,100276.50
2023-01-13T09:07:38.608Z,100277.00
2023-01-13T09:10:11.647Z,100264.06
2023-01-13T09:13:02.582Z,100271.19
2023-01-13T09:15:35.152Z,100271.97
2023-01-13T09:18:08.260Z,100263.09
2023-01-13T09:20:41.150Z,100268.66
2023-01-13T09:23:14.049Z,100275.53
2023-01-13T09:25:47.068Z,100268.91
2023-01-13T09:28:19.686Z,100293.34
2023-01-13T09:30:52.442Z,100286.97
2023-01-13T09:33:43.727Z,100297.66
2023-01-13T09:36:16.266Z,100290.06
2023-01-13T09:38:54.314Z,100294.09
2023-01-13T09:41:50.710Z,100309.38
2023-01-13T09:44:29.216Z,100309.38
2023-01-13T09:47:14.047Z,100298.72
2023-01-13T09:49:46.811Z,100309.94
2023-01-13T09:52:26.578Z,100313.22
2023-01-13T09:55:30.243Z,100316.28
2023-01-13T09:58:14.509Z,100327.72
2023-01-13T10:01:16.693Z,100327.47
2023-01-13T10:03:49.507Z,100327.47
2023-01-13T10:06:35.499Z,100320.63
2023-01-13T10:09:25.744Z,100337.38
2023-01-13T10:12:20.160Z,100327.72
2023-01-13T10:14:55.991Z,100326.97
2023-01-13T10:17:49.435Z,100326.22
2023-01-13T10:20:56.177Z,100329.28
2023-01-13T10:23:51.500Z,100334.63
2023-01-13T10:26:48.658Z,100350.22
2023-01-13T10:29:28.172Z,100325.78
2023-01-13T10:32:01.022Z,100337.50
2023-01-13T10:35:00.211Z,100339.59
2023-01-13T10:37:32.886Z,100344.41
2023-01-13T10:40:18.212Z,100350.47
2023-01-13T10:43:06.710Z,100353.06
2023-01-13T10:45:39.448Z,100360.13
2023-01-13T10:48:15.157Z,100368.53
2023-01-13T10:50:48.910Z,100367.00
2023-01-13T10:53:26.525Z,100362.94
2023-01-13T10:56:03.651Z,100382.97
2023-01-13T10:58:36.235Z,100379.44
2023-01-13T11:01:27.205Z,100382.97
2023-01-13T11:03:59.872Z,100391.88
2023-01-13T11:06:34.684Z,100370.78
2023-01-13T11:09:22.670Z,100392.41
2023-01-13T11:11:57.941Z,100383.97
2023-01-13T11:14:42.950Z,100396.00
2023-01-13T11:18:08.270Z,100383.34
2023-01-13T11:20:46.469Z,100397.78
2023-01-13T11:23:30.152Z,100395.47
2023-01-13T11:26:23.878Z,100395.75
2023-01-13T11:29:12.785Z,100400.31
2023-01-13T11:32:03.397Z,100389.91
2023-01-13T11:34:41.027Z,100402.91
2023-01-13T11:37:34.538Z,100409.81
2023-01-13T11:40:24.848Z,100413.59
2023-01-13T11:43:28.582Z,100417.44
2023-01-13T11:46:01.743Z,100416.66
2023-01-13T11:48:41.486Z,100425.81
2023-01-13T11:51:14.069Z,100423.03
2023-01-13T11:54:57.422Z,100407.78
2023-01-13T11:57:55.517Z,100417.72
2023-01-13T12:01:22.310Z,100416.44
2023-01-13T12:04:28.126Z,100427.16
2023-01-13T12:07:51.705Z,100424.34
2023-01-13T12:10:28.727Z,100441.13
2023-01-13T12:13:26.275Z,100431.69
2023-01-13T12:16:11.391Z,100437.84
2023-01-13T12:19:28.249Z,100458.25
2023-01-13T12:22:09.260Z,100456.16
2023-01-13T12:24:49.578Z,100454.63
2023-01-13T12:27:47.769Z,100464.84
2023-01-13T12:30:40.699Z,100447.47
2023-01-13T12:33:34.687Z,100462.81
2023-01-13T12:36:42.440Z,100448.91
2023-01-13T12:39:58.855Z,100469.16
2023-01-13T12:43:29.880Z,100467.16
2023-01-13T12:46:23.412Z,100474.53
2023-01-13T12:48:59.415Z,100472.75
2023-01-13T12:51:57.310Z,100495.88
2023-01-13T12:54:46.300Z,100475.31
2023-01-13T12:57:23.451Z,100484.69
2023-01-13T13:00:04.913Z,100500.72
2023-01-13T13:02:44.304Z,100494.31
2023-01-13T13:05:25.724Z,100509.09
2023-01-13T13:08:15.041Z,100518.25
2023-01-13T13:11:32.757Z,100510.13
2023-01-13T13:14:12.386Z,100519.75
2023-01-13T13:16:50.222Z,100522.56
2023-01-13T13:19:22.776Z,100521.31
2023-01-13T13:22:17.928Z,100531.50
2023-01-13T13:24:57.566Z,100524.88
2023-01-13T13:27:48.929Z,100539.63
2023-01-13T13:30:33.803Z,100545.22
2023-01-13T13:33:33.611Z,100541.66
2023-01-13T13:36:21.182Z,100546.78
2023-01-13T13:39:39.892Z,100549.84
2023-01-13T13:42:44.919Z,100534.59
2023-01-13T13:45:42.462Z,100534.59
2023-01-13T13:48:34.345Z,100567.19
2023-01-13T13:51:31.706Z,100563.13
2023-01-13T13:54:05.265Z,100576.25
2023-01-13T13:56:45.410Z,100583.41
2023-01-13T13:59:30.654Z,100582.13
2023-01-13T14:02:04.162Z,100589.97
2023-01-13T14:04:40.714Z,100585.91
2023-01-13T14:07:23.547Z,100611.38
2023-01-13T14:09:57.235Z,100624.06
2023-01-13T14:24:55.361Z,100644.63
2023-01-13T14:27:30.922Z,100650.81
2023-01-13T14:30:04.667Z,100655.59
2023-01-13T14:32:38.147Z,100659.94
2023-01-13T14:35:17.584Z,100652.31
2023-01-13T14:37:59.352Z,100652.53
2023-01-13T14:40:39.556Z,100667.88
2023-01-13T14:43:16.663Z,100674.69
2023-01-13T14:46:02.869Z,100679.06
2023-01-13T14:48:37.418Z,100680.78
2023-01-13T14:51:20.266Z,100694.28
2023-01-13T14:53:55.385Z,100679.44
2023-01-13T14:56:49.915Z,100691.75
2023-01-13T14:59:40.803Z,100704.22
2023-01-13T15:02:25.410Z,100716.66
2023-01-13T15:05:22.016Z,100725.31
2023-01-13T15:07:57.255Z,100726.78
2023-01-13T15:10:31.361Z,100717.63
2023-01-13T15:13:08.798Z,100736.09
2023-01-13T15:15:41.419Z,100734.13
2023-01-13T15:18:17.418Z,100740.75
2023-01-13T15:20:53.081Z,100738.66
2023-01-13T15:23:25.595Z,100738.66
2023-01-13T15:26:00.641Z,100733.84
2023-01-13T15:28:33.259Z,100750.91
2023-01-13T15:31:05.919Z,100750.63
2023-01-13T15:33:38.712Z,100743.75
2023-01-13T15:36:31.562Z,100749.63
2023-01-13T15:39:04.529Z,100753.41
2023-01-13T15:41:55.651Z,100746.53
2023-01-13T15:44:46.693Z,100751.38
2023-01-13T15:47:22.820Z,100759.00
2023-01-13T15:49:55.602Z,100764.31
2023-01-13T15:52:28.360Z,100780.59
2023-01-13T15:55:01.079Z,100789.47
2023-01-13T15:57:38.118Z,100791.97
2023-01-13T16:00:20.210Z,100789.19
2023-01-13T16:02:52.801Z,100785.63
2023-01-13T16:05:26.181Z,100799.75
2023-01-13T16:07:58.694Z,100799.31
2023-01-13T16:10:31.238Z,100796.09
2023-01-13T16:13:03.802Z,100792.34
2023-01-13T16:15:43.489Z,100797.66
2023-01-13T16:18:21.271Z,100804.47
2023-01-13T16:20:55.280Z,100811.34
2023-01-13T16:23:28.242Z,100812.28
2023-01-13T16:26:03.770Z,100819.91
2023-01-13T16:28:36.356Z,100821.94
2023-01-13T16:31:36.024Z,100828.09
2023-01-13T16:34:09.087Z,100828.47
2023-01-13T16:36:42.033Z,100836.59
2023-01-13T16:39:23.360Z,100843.72
2023-01-13T16:41:56.685Z,100837.53
2023-01-13T16:44:29.275Z,100842.38
2023-01-13T16:47:02.219Z,100829.81
2023-01-13T16:49:34.971Z,100836.94
2023-01-13T16:52:07.688Z,100835.88
2023-01-13T16:54:40.297Z,100844.44
2023-01-13T16:57:14.191Z,100854.41
2023-01-13T16:59:46.885Z,100854.09
2023-01-13T17:02:21.048Z,100852.53
2023-01-13T17:04:53.693Z,100857.56
2023-01-13T17:07:27.522Z,100864.41
2023-01-13T17:10:00.213Z,100879.13
2023-01-13T17:12:32.959Z,100870.44
2023-01-13T17:15:09.137Z,100881.38
2023-01-13T17:17:47.029Z,100879.34
2023-01-13T17:20:19.721Z,100877.78
2023-01-13T17:22:58.360Z,100875.66
2023-01-13T17:25:31.419Z,100888.84
2023-01-13T17:28:04.371Z,100896.75
2023-01-13T17:30:36.959Z,100896.44
2023-01-13T17:33:15.640Z,100903.75
2023-01-13T17:35:49.338Z,100896.03
2023-01-13T17:38:27.994Z,100903.66
2023-01-13T17:41:05.280Z,100907.97
2023-01-13T17:43:38.999Z,100923.97
2023-01-13T17:46:13.436Z,100917.63
2023-01-13T17:51:48.302Z,100913.94
2023-01-13T17:54:21.165Z,100915.47
2023-01-13T17:56:56.455Z,100924.34
2023-01-13T17:59:44.230Z,100928.56
2023-01-13T18:02:22.962Z,100930.25
2023-01-13T18:04:55.571Z,100929.34
2023-01-13T18:07:31.179Z,100935.97
2023-01-13T18:10:04.231Z,100923.91
2023-01-13T18:15:23.642Z,100933.78
2023-01-13T18:17:56.673Z,100941.72
2023-01-13T18:20:47.865Z,100943.41
2023-01-13T18:23:46.928Z,100946.34
2023-01-13T18:26:38.772Z,100958.88
2023-01-13T18:29:13.902Z,100954.34
2023-01-13T18:31:46.607Z,100947.81
2023-01-13T18:34:20.833Z,100957.28
2023-01-13T18:36:53.283Z,100955.31
2023-01-13T18:39:25.871Z,100960.00
2023-01-13T18:42:17.180Z,100955.69
2023-01-13T18:44:50.093Z,100965.72
2023-01-13T18:47:30.438Z,100968.31
2023-01-13T18:50:04.491Z,100965.22
2023-01-13T18:52:49.519Z,100980.38
2023-01-13T18:55:25.260Z,100981.94
2023-01-13T18:58:01.023Z,100988.31
2023-01-13T19:00:46.829Z,100989.06
2023-01-13T19:03:30.258Z,100997.75
2023-01-13T19:06:12.748Z,101005.47
2023-01-13T19:09:08.671Z,101031.84
2023-01-13T19:11:42.670Z,101024.59
2023-01-13T19:14:41.969Z,101030.59
2023-01-13T19:17:16.238Z,101031.06
2023-01-13T19:19:55.419Z,101046.91
2023-01-13T19:22:32.957Z,101046.44
2023-01-13T19:25:08.387Z,101030.91
2023-01-13T19:27:49.919Z,101041.78
2023-01-13T19:30:22.581Z,101043.34
2023-01-13T19:35:41.850Z,101045.81
2023-01-13T19:38:15.417Z,101048.31
2023-01-13T19:41:07.507Z,101054.53
2023-01-13T19:43:58.797Z,101055.47
2023-01-13T19:46:32.795Z,101065.09
2023-01-13T19:49:10.539Z,101057.97
2023-01-13T19:51:43.092Z,101058.91
2023-01-13T19:54:15.835Z,101057.38
2023-01-13T19:56:48.730Z,101059.88
2023-01-13T19:59:24.642Z,101056.75
2023-01-13T20:02:04.500Z,101058.28
2023-01-13T20:04:44.247Z,101064.56
2023-01-13T20:07:16.809Z,101071.41
2023-01-13T20:09:49.386Z,101075.59
2023-01-13T20:12:22.641Z,101083.06
2023-01-13T20:14:55.866Z,101089.88
2023-01-13T20:17:30.201Z,101095.47
2023-01-13T20:20:05.166Z,101108.38
2023-01-13T20:22:39.472Z,101102.97
2023-01-13T20:25:16.980Z,101102.19
2023-01-13T20:27:49.859Z,101102.19
2023-01-13T20:30:23.845Z,101113.56
2023-01-13T20:32:58.614Z,101113.06
2023-01-13T20:35:31.162Z,101097.91
2023-01-13T20:38:03.741Z,101109.66
2023-01-13T20:40:36.363Z,101107.06
2023-01-13T20:43:09.186Z,101113.41
2023-01-13T20:45:41.792Z,101115.59
2023-01-13T20:48:14.463Z,101129.88
2023-01-13T20:50:54.203Z,101132.34
2023-01-13T20:53:26.762Z,101126.47
2023-01-13T20:55:59.397Z,101122.13
2023-01-13T20:58:31.986Z,101131.75
2023-01-13T21:01:05.264Z,101139.84
2023-01-13T21:03:37.999Z,101141.09
2023-01-13T21:06:10.913Z,101135.97
2023-01-13T21:08:43.412Z,101137.06
2023-01-13T21:11:36.491Z,101141.75
2023-01-13T21:14:36.675Z,101146.06
2023-01-13T21:17:37.711Z,101149.50
2023-01-13T21:20:13.934Z,101150.75
2023-01-13T21:22:48.830Z,101150.75
2023-01-13T21:25:28.265Z,101161.91
2023-01-13T21:28:08.121Z,101155.09
2023-01-13T21:30:40.745Z,101168.44
2023-01-13T21:33:14.097Z,101176.53
2023-01-13T21:35:46.701Z,101179.00
2023-01-13T21:38:19.276Z,101165.38
2023-01-13T21:41:05.471Z,101176.69
2023-01-13T21:43:56.537Z,101168.78
2023-01-13T21:46:47.994Z,101174.06
2023-01-13T21:49:20.479Z,101167.38
2023-01-13T21:51:52.978Z,101182.13
2023-01-13T21:54:25.486Z,101177.97
2023-01-13T21:56:57.938Z,101188.34
2023-01-13T21:59:30.536Z,101195.47
2023-01-13T22:02:25.214Z,101187.72
2023-01-13T22:04:59.460Z,101195.78
2023-01-13T22:07:35.729Z,101186.94
2023-01-13T22:10:15.621Z,101192.53
2023-01-13T22:12:48.729Z,101205.72
2023-01-13T22:15:25.919Z,101190.53
2023-01-13T22:18:07.228Z,101207.59
2023-01-13T22:20:41.272Z,101219.84
2023-01-13T22:23:14.102Z,101226.38
2023-01-13T22:25:46.638Z,101226.38
2023-01-13T22:28:24.069Z,101232.41
2023-01-13T22:30:56.789Z,101228.06
2023-01-13T22:33:29.561Z,101229.31
2023-01-13T22:36:02.070Z,101235.38
2023-01-13T22:38:35.143Z,101229.13
2023-01-13T22:41:09.703Z,101250.09
2023-01-13T22:43:42.503Z,101234.56
2023-01-13T22:46:15.292Z,101246.84
2023-01-13T22:48:48.373Z,101238.94
2023-01-13T22:51:22.895Z,101238.47
2023-01-13T22:53:55.724Z,101246.06
2023-01-13T22:56:31.847Z,101247.44
2023-01-13T22:59:06.995Z,101244.53
2023-01-13T23:01:45.092Z,101239.69
2023-01-13T23:04:17.767Z,101250.56
2023-01-13T23:06:50.366Z,101253.66
2023-01-13T23:09:33.333Z,101253.19
2023-01-13T23:12:06.323Z,101260.97
2023-01-13T23:14:38.879Z,101255.38
2023-01-13T23:17:12.019Z,101257.41
2023-01-13T23:19:48.953Z,101252.38
2023-01-13T23:22:21.486Z,101251.00
2023-01-13T23:24:54.005Z,101255.81
2023-01-13T23:27:26.552Z,101249.91
2023-01-13T23:29:59.114Z,101243.09
2023-01-13T23:32:37.998Z,101238.44
2023-01-13T23:35:10.514Z,101226.50
2023-01-13T23:37:43.717Z,101234.88
2023-01-13T23:40:16.427Z,101234.88
2023-01-13T23:42:49.012Z,101220.59
2023-01-13T23:45:21.542Z,101223.38
2023-01-13T23:47:56.163Z,101228.97
2023-01-13T23:50:39.012Z,101230.22
2023-01-13T23:53:11.681Z,101219.50
2023-01-13T23:55:46.197Z,101228.66
2023-01-13T23:58:18.975Z,101228.03
